Barcroft Research Lab Weather observations

Data are for 10 minute period ending at time listed.
 Day   Time   Solar   Ave.   Ave.  Ave.  Vector  Std.   Max.    Baro.    
  of    of     Rad.   Air    Rel.  Wind   Wind   Dev.   Wind   Press.    
Year   Day            Temp.  Hum.  Speed  Dir.   Dir.   Gust            
2015   (PST)  Kw/m2    F      %     mph   deg.   deg.    mph     mb.    
------------------------------------------------------------------------
 209   10:10    1017   50.8    30    4.8   232    -99    12.1   650.60  
 209   10:20    1013   51.7    31    5.8   182    -99    16.7   650.60  
 209   10:30    1009   52.8    31    7.0   159    -99    15.1   650.60  
 209   10:40    1002   52.7    31    6.0   177    -99    14.0   650.60  
 209   10:50     994   52.2    30    5.8   173    -99    12.4   650.60  
 209   11:00     985   53.4    32    7.5   162    -99    13.9   650.60  
 209   11:10     974   52.5    32    6.8   159    -99    12.0   650.60  
 209   11:20     960   52.2    32    5.2   114    -99    11.2   650.60  
 209   11:30     946   51.9    32    9.2   117    -99    14.5   650.60  
 209   11:40     930   52.1    32    7.2   124    -99    11.3   650.60  
 209   11:50     915   53.7    31    6.4   153    -99    14.8   650.60  
 209   12:00     897   53.6    31    7.3   141    -99    11.8   650.60  
 209   12:10     876   52.6    32    6.2   105    -99    12.1   650.80  
 209   12:20     855   52.7    31    6.2   136    -99    11.8   650.80  
 209   12:30     834   53.0    30    5.7   134    -99    12.1   650.80  
 209   12:40     809   52.7    31    6.8   121    -99    11.7   650.80  
 209   12:50     784   53.6    30    5.1   137    -99    11.2   650.80  
 209   13:00     759   53.6    30    5.6   127    -99    11.7   650.80  
 209   13:10     730   53.3    30    4.6   152    -99    10.6   650.70  
 209   13:20     701   53.1    30    5.3   169    -99    10.5   650.70  
 209   13:30     672   54.0    30    4.4   156    -99     9.7   650.70  
 209   13:40     642   53.7    29    2.7    85    -99     6.5   650.70  
 209   13:50     611   52.1    30    3.0   130    -99     7.3   650.70  
 209   14:00     579   51.9    30    5.8   106    -99     9.7   650.70  
 209   14:10     547   51.8    30    5.0   105    -99    10.3   650.80  
 209   14:20     512   52.1    30    4.5   124    -99     9.8   650.80  
 209   14:30     477   51.6    31    4.3   118    -99     7.8   650.80  
 209   14:40     445   53.1    29    3.8   146    -99     7.6   650.80  
 209   14:50     409   52.7    29    3.5   128    -99     8.1   650.80  
 209   15:00     376   51.3    30    5.4    85    -99     9.0   650.80  
 209   15:10     339   50.6    30    3.3    86    -99     5.8   650.80  
 209   15:20     305   50.7    30    2.7    84    -99     6.2   650.80  
 209   15:30     270   50.0    31    4.1    72    -99     7.4   650.80  
 209   15:40     200   49.2    31    4.6    59    -99     6.8   650.80  
 209   15:50      21   47.8    34    3.6    56    -99     6.1   650.80  
 209   16:00      19   47.2    34    3.6    85    -99     5.8   650.80  
 209   16:10      17   46.6    37    3.7    84    -99     6.3   651.00  
 209   16:20      16   46.1    37    4.1    63    -99     7.2   651.00  
 209   16:30      14   46.0    38    3.3    58    -99     5.2   651.00  
 209   16:40      12   45.5    38    2.4    68    -99     4.4   651.00  
 209   16:50       9   45.1    39    4.2    65    -99     6.4   651.00  
 209   17:00       5   45.0    38    3.6    54    -99     5.2   651.00  
 209   17:10       2   45.3    37    2.6    51    -99     5.5   651.20  
 209   17:20       1   45.0    38    3.5    57    -99     6.1   651.20  
 209   17:30       0   45.0    38    2.6    53    -99     4.3   651.20  
 209   17:40       0   45.1    37    2.0    61    -99     3.7   651.20  
 209   17:50       0   44.9    38    2.6    53    -99     4.1   651.20  
 209   18:00       0   44.7    38    2.9    51    -99     3.9   651.20  
 209   18:10       0   44.5    39    2.3    52    -99     3.4   651.50  
 209   18:20       0   44.2    39    3.6    48    -99     5.7   651.50  
 209   18:30       0   44.0    39    4.1    48    -99     6.3   651.50  
 209   18:40       0   43.9    40    3.4    39    -99     5.2   651.50  
 209   18:50       0   44.0    40    3.2    32    -99     6.0   651.50  
 209   19:00       0   44.0    39    3.1    32    -99     6.2   651.50  
 209   19:10       0   43.8    40    3.6    34    -99     5.9   651.90  
 209   19:20       0   43.7    40    4.1    34    -99     6.9   651.90  
 209   19:30       0   43.4    40    3.4    28    -99     5.5   651.90  
 209   19:40       0   43.2    39    2.9    29    -99     5.8   651.90  
 209   19:50       0   42.9    39    2.9    18    -99     4.1   651.90  
 209   20:00       0   43.1    38    3.4    19    -99     5.6   651.90  
 209   20:10       0   43.0    38    2.2    22    -99     3.4   651.80  
 209   20:20       0   42.7    39    2.0    31    -99     3.9   651.80  
 209   20:30       0   42.4    40    1.2    47    -99     2.4   651.80  
 209   20:40       0   41.9    40    1.0    25    -99     3.1   651.80  
 209   20:50       0   42.1    40    1.5    45    -99     4.4   651.80  
 209   21:00       0   41.8    41    1.2    65    -99     6.5   651.80  
 209   21:10       0   42.2    39    2.1    66    -99     3.9   651.90  
 209   21:20       0   42.3    40    1.8    59    -99     4.3   651.90  
 209   21:30       0   41.7    41    1.4    55    -99     3.4   651.90  
 209   21:40       0   41.7    40    2.3    54    -99     5.8   651.90  
 209   21:50       0   41.8    40    1.5    47    -99     4.2   651.90  
 209   22:00       0   41.6    40    1.1    58    -99     3.7   651.90  
 209   22:10       0   41.1    41    0.8    61    -99     2.6   651.80  
 209   22:20       0   40.8    42    1.4    57    -99     3.0   651.80  
 209   22:30       0   40.7    43    1.2    68    -99     2.6   651.80  
 209   22:40       0   40.6    41    2.1    60    -99     3.8   651.80  
 209   22:50       0   41.2    40    1.5    62    -99     3.1   651.80  
 209   23:00       0   40.3    40    0.4    97    -99     3.4   651.80  
 209   23:10       0   39.5    41    0.1   109    -99     2.2   651.60  
 209   23:20       0   38.9    41    0.0   110    -99     1.0   651.60  
 209   23:30       0   38.9    42    0.4   113    -99     2.7   651.60  
 209   23:40       0   38.5    43    0.6   138    -99     2.9   651.60  
 209   23:50       0   38.1    43    0.3   125    -99     2.0   651.60  
 210    0:00       0   37.6    44    0.5   114    -99     2.0   651.60  
 210    0:10       0   37.3    44    0.3   127    -99     1.9   651.40  
 210    0:20       0   37.5    44    0.4   136    -99     1.8   651.40  
 210    0:30       0   37.5    43    0.0   141    -99     1.0   651.40  
 210    0:40       0   37.6    43    0.1   141    -99     1.3   651.40  
 210    0:50       0   37.2    44    0.7   141    -99     2.5   651.40  
 210    1:00       0   37.0    44    0.1   133    -99     1.4   651.40  
 210    1:10       0   37.3    43    0.1   148    -99     1.0   651.50  
 210    1:20       0   37.4    43    0.4   112    -99     2.1   651.50  
 210    1:30       0   37.2    43    0.4   113    -99     2.3   651.50  
 210    1:40       0   37.1    42    0.1   134    -99     2.4   651.50  
 210    1:50       0   37.4    42    0.1   146    -99     2.0   651.50  
 210    2:00       0   37.7    42    0.0   150    -99     0.6   651.50  
 210    2:10       0   38.1    41    0.1   150    -99     1.2   651.50  
 210    2:20       0   38.1    42    0.2   150    -99     1.8   651.50  
 210    2:30       0   37.7    43    0.7   167    -99     2.3   651.50  
 210    2:40       1   37.7    43    0.4   195    -99     1.8   651.50  
 210    2:50       3   37.9    43    0.3   195    -99     1.4   651.50  
 210    3:00      10   38.7    42    0.4   160    -99     2.9   651.50  
 210    3:10      27   40.3    40    1.3   191    -99     2.5   651.80  
 210    3:20      54   42.2    39    1.0   182    -99     3.1   651.80  
 210    3:30      90   43.5    39    2.1   173    -99     3.7   651.80  
 210    3:40     129   44.9    39    2.6   167    -99     4.1   651.80  
 210    3:50     161   46.0    38    3.3   159    -99     6.1   651.80  
 210    4:00     192   48.1    36    3.1   150    -99     5.2   651.80  
 210    4:10     226   49.0    35    4.0   152    -99     6.0   652.00  
 210    4:20     260   49.3    34    4.2   145    -99     6.1   652.00  
 210    4:30     295   49.9    32    4.1   145    -99     5.8   652.00  
 210    4:40     330   50.2    31    5.3   140    -99     7.8   652.00  
 210    4:50     365   50.5    30    5.7   144    -99    10.1   652.00  
 210    5:00     399   50.1    30    5.7   138    -99     9.3   652.00  
 210    5:10     434   50.6    30    5.8   138    -99     9.3   652.30  
 210    5:20     468   50.6    30    6.5   135    -99     9.3   652.30  
 210    5:30     502   50.6    30    6.8   127    -99    13.2   652.30  
 210    5:40     535   50.6    30    6.0   130    -99    11.2   652.30  
 210    5:50     569   50.7    30    7.7   126    -99    13.4   652.30  
 210    6:00     601   50.5    31    8.1   122    -99    12.6   652.30  
 210    6:10     632   50.7    31    5.7   127    -99     8.6   652.70  
 210    6:20     663   50.8    31    4.2   158    -99    10.3   652.70  
 210    6:30     692   50.9    32    6.0   137    -99    14.3   652.70  
 210    6:40     721   51.4    31    6.8   148    -99    11.8   652.70  
 210    6:50     749   51.8    30    6.0   125    -99    11.6   652.70  
 210    7:00     775   51.6    32    6.5   126    -99    12.3   652.70  
 210    7:10     800   51.6    32    6.0   126    -99     9.8   652.80  
 210    7:20     823   52.7    32    7.5   148    -99    17.6   652.80  
 210    7:30     846   52.5    32    6.9   148    -99    12.7   652.80  
 210    7:40     866   52.5    32    8.2   134    -99    13.8   652.80  
 210    7:50     886   53.2    30    7.6   146    -99    13.1   652.80  
 210    8:00     903   53.3    31    7.1   157    -99    13.7   652.80  
 210    8:10     921   52.8    31    7.1   172    -99    14.5   653.30  
 210    8:20     937   52.5    32    7.2   169    -99    13.7   653.30  
 210    8:30     951   52.6    30    6.6   198    -99    16.8   653.30  
 210    8:40     965   52.4    29    6.5   182    -99    13.7   653.30  
 210    8:50     978   52.9    27    7.6   191    -99    13.7   653.30  
 210    9:00     988   52.8    27    4.7   197    -99    13.3   653.30  
 210    9:10     996   53.9    28    5.4   194    -99    13.1   653.40  
 210    9:20    1002   53.9    27    5.0   177    -99    12.9   653.40  
 210    9:30    1007   53.8    26    7.5   226    -99    18.4   653.40  
 210    9:40    1010   52.8    27    6.2   246    -99    12.8   653.40  
 210    9:50    1010   53.5    28    6.0   200    -99    13.0   653.40  
 210   10:00    1010   53.4    28    5.7   236    -99    14.7   653.40  

Return to Barcroft Research Lab graphs page.


Western Regional Climate Center,wrcc@dri.edu